sensor_id;sensor_type;location;lat;lon;timestamp;P1;durP1;ratioP1;P2;durP2;ratioP2
1026;SDS011;502;48.746;9.214;2023-08-01T00:00:42;8.73;;;4.17;;
1026;SDS011;502;48.746;9.214;2023-08-01T00:03:08;6.13;;;3.60;;
1026;SDS011;502;48.746;9.214;2023-08-01T00:05:35;4.70;;;3.70;;
1026;SDS011;502;48.746;9.214;2023-08-01T00:08:02;4.73;;;3.37;;
1026;SDS011;502;48.746;9.214;2023-08-01T00:10:29;7.00;;;3.50;;
1026;SDS011;502;48.746;9.214;2023-08-01T00:12:57;4.00;;;3.13;;
1026;SDS011;502;48.746;9.214;2023-08-01T00:15:24;4.17;;;3.77;;
1026;SDS011;502;48.746;9.214;2023-08-01T00:17:50;3.90;;;3.23;;
1026;SDS011;502;48.746;9.214;2023-08-01T00:20:17;4.20;;;3.50;;
1026;SDS011;502;48.746;9.214;2023-08-01T00:22:44;3.80;;;3.10;;
1026;SDS011;502;48.746;9.214;2023-08-01T00:25:10;4.53;;;3.80;;
1026;SDS011;502;48.746;9.214;2023-08-01T00:27:37;4.40;;;3.10;;
1026;SDS011;502;48.746;9.214;2023-08-01T00:30:06;4.73;;;3.80;;
1026;SDS011;502;48.746;9.214;2023-08-01T00:32:34;4.60;;;3.33;;
1026;SDS011;502;48.746;9.214;2023-08-01T00:35:00;4.63;;;3.63;;
1026;SDS011;502;48.746;9.214;2023-08-01T00:37:28;5.33;;;3.50;;
1026;SDS011;502;48.746;9.214;2023-08-01T00:39:54;7.50;;;3.77;;
1026;SDS011;502;48.746;9.214;2023-08-01T00:42:21;4.63;;;2.93;;
1026;SDS011;502;48.746;9.214;2023-08-01T00:44:47;4.93;;;4.07;;
1026;SDS011;502;48.746;9.214;2023-08-01T00:47:15;4.67;;;3.30;;
1026;SDS011;502;48.746;9.214;2023-08-01T00:49:42;3.87;;;2.83;;
1026;SDS011;502;48.746;9.214;2023-08-01T00:52:09;5.00;;;3.37;;
1026;SDS011;502;48.746;9.214;2023-08-01T00:54:36;8.37;;;3.97;;
1026;SDS011;502;48.746;9.214;2023-08-01T00:57:02;5.17;;;3.30;;
1026;SDS011;502;48.746;9.214;2023-08-01T00:59:29;4.40;;;3.00;;
1026;SDS011;502;48.746;9.214;2023-08-01T01:01:56;5.20;;;3.20;;
1026;SDS011;502;48.746;9.214;2023-08-01T01:04:24;3.87;;;3.33;;
1026;SDS011;502;48.746;9.214;2023-08-01T01:06:52;3.97;;;3.23;;
1026;SDS011;502;48.746;9.214;2023-08-01T01:09:27;4.80;;;3.23;;
1026;SDS011;502;48.746;9.214;2023-08-01T01:11:54;4.67;;;3.90;;
1026;SDS011;502;48.746;9.214;2023-08-01T01:14:21;4.60;;;3.20;;
1026;SDS011;502;48.746;9.214;2023-08-01T01:16:48;5.03;;;3.70;;
1026;SDS011;502;48.746;9.214;2023-08-01T01:19:15;6.10;;;3.43;;
1026;SDS011;502;48.746;9.214;2023-08-01T01:21:43;4.70;;;3.50;;
1026;SDS011;502;48.746;9.214;2023-08-01T01:24:11;6.20;;;3.30;;
1026;SDS011;502;48.746;9.214;2023-08-01T01:26:39;5.17;;;3.90;;
1026;SDS011;502;48.746;9.214;2023-08-01T01:29:06;6.50;;;3.30;;
1026;SDS011;502;48.746;9.214;2023-08-01T01:31:34;4.50;;;3.30;;
1026;SDS011;502;48.746;9.214;2023-08-01T01:34:01;5.20;;;3.63;;
1026;SDS011;502;48.746;9.214;2023-08-01T01:36:28;4.10;;;3.23;;
1026;SDS011;502;48.746;9.214;2023-08-01T01:38:56;4.10;;;3.70;;
1026;SDS011;502;48.746;9.214;2023-08-01T01:41:23;4.70;;;3.17;;
1026;SDS011;502;48.746;9.214;2023-08-01T01:43:50;5.80;;;4.13;;
1026;SDS011;502;48.746;9.214;2023-08-01T01:46:17;4.27;;;3.73;;
1026;SDS011;502;48.746;9.214;2023-08-01T01:48:43;3.50;;;3.20;;
1026;SDS011;502;48.746;9.214;2023-08-01T01:51:10;4.80;;;3.60;;
1026;SDS011;502;48.746;9.214;2023-08-01T01:53:37;4.50;;;3.80;;
1026;SDS011;502;48.746;9.214;2023-08-01T01:56:05;4.83;;;3.80;;
1026;SDS011;502;48.746;9.214;2023-08-01T01:58:31;5.80;;;3.50;;
1026;SDS011;502;48.746;9.214;2023-08-01T02:00:58;4.03;;;3.20;;
1026;SDS011;502;48.746;9.214;2023-08-01T02:03:25;5.30;;;3.77;;
1026;SDS011;502;48.746;9.214;2023-08-01T02:05:52;4.30;;;3.33;;
1026;SDS011;502;48.746;9.214;2023-08-01T02:08:18;6.20;;;3.50;;
1026;SDS011;502;48.746;9.214;2023-08-01T02:10:45;3.80;;;3.50;;
1026;SDS011;502;48.746;9.214;2023-08-01T02:13:13;4.90;;;3.63;;
1026;SDS011;502;48.746;9.214;2023-08-01T02:15:40;6.57;;;4.37;;
1026;SDS011;502;48.746;9.214;2023-08-01T02:18:06;4.73;;;3.13;;
1026;SDS011;502;48.746;9.214;2023-08-01T02:20:33;5.50;;;3.83;;
1026;SDS011;502;48.746;9.214;2023-08-01T02:22:59;5.37;;;3.50;;
1026;SDS011;502;48.746;9.214;2023-08-01T02:25:26;6.73;;;4.10;;
1026;SDS011;502;48.746;9.214;2023-08-01T02:27:53;4.43;;;3.40;;
1026;SDS011;502;48.746;9.214;2023-08-01T02:30:21;4.80;;;3.50;;
1026;SDS011;502;48.746;9.214;2023-08-01T02:32:47;5.70;;;4.07;;
1026;SDS011;502;48.746;9.214;2023-08-01T02:35:14;6.17;;;3.40;;
1026;SDS011;502;48.746;9.214;2023-08-01T02:37:41;4.10;;;3.70;;
1026;SDS011;502;48.746;9.214;2023-08-01T02:40:08;5.53;;;3.70;;
1026;SDS011;502;48.746;9.214;2023-08-01T02:42:35;5.00;;;3.90;;
1026;SDS011;502;48.746;9.214;2023-08-01T02:45:02;4.17;;;3.33;;
1026;SDS011;502;48.746;9.214;2023-08-01T02:47:31;6.20;;;3.80;;
1026;SDS011;502;48.746;9.214;2023-08-01T02:49:57;5.23;;;4.40;;
1026;SDS011;502;48.746;9.214;2023-08-01T02:52:24;4.03;;;3.50;;
1026;SDS011;502;48.746;9.214;2023-08-01T02:54:50;4.50;;;3.90;;
1026;SDS011;502;48.746;9.214;2023-08-01T02:57:17;4.50;;;3.87;;
1026;SDS011;502;48.746;9.214;2023-08-01T02:59:44;5.60;;;4.20;;
1026;SDS011;502;48.746;9.214;2023-08-01T03:02:11;4.30;;;3.50;;
1026;SDS011;502;48.746;9.214;2023-08-01T03:04:39;5.90;;;3.97;;
1026;SDS011;502;48.746;9.214;2023-08-01T03:07:05;4.27;;;3.53;;
1026;SDS011;502;48.746;9.214;2023-08-01T03:09:32;4.43;;;3.63;;
1026;SDS011;502;48.746;9.214;2023-08-01T03:11:59;5.33;;;3.30;;
1026;SDS011;502;48.746;9.214;2023-08-01T03:14:25;6.03;;;4.10;;
1026;SDS011;502;48.746;9.214;2023-08-01T03:16:52;5.90;;;4.47;;
1026;SDS011;502;48.746;9.214;2023-08-01T03:19:18;6.50;;;3.37;;
1026;SDS011;502;48.746;9.214;2023-08-01T03:21:46;5.43;;;4.10;;
1026;SDS011;502;48.746;9.214;2023-08-01T03:24:13;4.47;;;3.67;;
1026;SDS011;502;48.746;9.214;2023-08-01T03:26:40;5.80;;;4.57;;
1026;SDS011;502;48.746;9.214;2023-08-01T03:29:07;5.10;;;3.70;;
1026;SDS011;502;48.746;9.214;2023-08-01T03:31:34;4.93;;;3.90;;
1026;SDS011;502;48.746;9.214;2023-08-01T03:34:00;4.07;;;3.03;;
1026;SDS011;502;48.746;9.214;2023-08-01T03:36:27;4.80;;;3.70;;
1026;SDS011;502;48.746;9.214;2023-08-01T03:38:55;4.10;;;3.47;;
1026;SDS011;502;48.746;9.214;2023-08-01T03:41:21;7.53;;;3.50;;
1026;SDS011;502;48.746;9.214;2023-08-01T03:43:48;4.63;;;3.67;;
1026;SDS011;502;48.746;9.214;2023-08-01T03:46:15;4.70;;;3.13;;
1026;SDS011;502;48.746;9.214;2023-08-01T03:48:41;4.00;;;3.17;;
1026;SDS011;502;48.746;9.214;2023-08-01T03:51:09;3.77;;;3.43;;
1026;SDS011;502;48.746;9.214;2023-08-01T03:53:35;4.90;;;3.27;;
1026;SDS011;502;48.746;9.214;2023-08-01T03:56:03;4.60;;;3.80;;
1026;SDS011;502;48.746;9.214;2023-08-01T03:58:30;4.90;;;2.70;;
1026;SDS011;502;48.746;9.214;2023-08-01T04:00:57;4.50;;;4.00;;
1026;SDS011;502;48.746;9.214;2023-08-01T04:03:25;4.67;;;3.57;;
1026;SDS011;502;48.746;9.214;2023-08-01T04:05:52;5.47;;;3.57;;
1026;SDS011;502;48.746;9.214;2023-08-01T04:08:19;5.30;;;3.87;;
1026;SDS011;502;48.746;9.214;2023-08-01T04:10:45;4.57;;;3.63;;
1026;SDS011;502;48.746;9.214;2023-08-01T04:13:13;3.60;;;3.23;;
1026;SDS011;502;48.746;9.214;2023-08-01T04:15:40;4.80;;;3.40;;
1026;SDS011;502;48.746;9.214;2023-08-01T04:18:06;5.70;;;3.37;;
1026;SDS011;502;48.746;9.214;2023-08-01T04:20:33;3.20;;;2.87;;
1026;SDS011;502;48.746;9.214;2023-08-01T04:22:59;4.67;;;3.70;;
1026;SDS011;502;48.746;9.214;2023-08-01T04:25:26;3.40;;;2.60;;
1026;SDS011;502;48.746;9.214;2023-08-01T04:27:53;5.90;;;3.37;;
1026;SDS011;502;48.746;9.214;2023-08-01T04:30:21;5.13;;;3.60;;
1026;SDS011;502;48.746;9.214;2023-08-01T04:32:48;6.00;;;4.50;;
1026;SDS011;502;48.746;9.214;2023-08-01T04:35:14;4.30;;;3.47;;
1026;SDS011;502;48.746;9.214;2023-08-01T04:37:41;3.90;;;3.03;;
1026;SDS011;502;48.746;9.214;2023-08-01T04:40:08;4.63;;;3.77;;
1026;SDS011;502;48.746;9.214;2023-08-01T04:42:35;6.60;;;3.87;;
1026;SDS011;502;48.746;9.214;2023-08-01T04:45:01;4.50;;;3.67;;
1026;SDS011;502;48.746;9.214;2023-08-01T04:47:30;5.13;;;3.47;;
1026;SDS011;502;48.746;9.214;2023-08-01T04:49:56;7.27;;;3.53;;
1026;SDS011;502;48.746;9.214;2023-08-01T04:52:23;7.43;;;3.40;;
1026;SDS011;502;48.746;9.214;2023-08-01T04:54:50;4.60;;;3.70;;
1026;SDS011;502;48.746;9.214;2023-08-01T04:57:16;4.80;;;3.70;;
1026;SDS011;502;48.746;9.214;2023-08-01T04:59:43;8.40;;;4.60;;
1026;SDS011;502;48.746;9.214;2023-08-01T05:02:09;6.77;;;3.03;;
1026;SDS011;502;48.746;9.214;2023-08-01T05:04:37;4.90;;;3.30;;
1026;SDS011;502;48.746;9.214;2023-08-01T05:07:04;5.13;;;3.30;;
1026;SDS011;502;48.746;9.214;2023-08-01T05:09:31;5.30;;;3.70;;
1026;SDS011;502;48.746;9.214;2023-08-01T05:11:58;5.50;;;3.30;;
1026;SDS011;502;48.746;9.214;2023-08-01T05:14:24;6.70;;;3.93;;
1026;SDS011;502;48.746;9.214;2023-08-01T05:16:51;4.80;;;3.50;;
1026;SDS011;502;48.746;9.214;2023-08-01T05:19:18;3.90;;;3.23;;
1026;SDS011;502;48.746;9.214;2023-08-01T05:21:48;3.83;;;3.00;;
1026;SDS011;502;48.746;9.214;2023-08-01T05:24:14;5.50;;;3.37;;
1026;SDS011;502;48.746;9.214;2023-08-01T05:26:41;4.10;;;3.07;;
1026;SDS011;502;48.746;9.214;2023-08-01T05:29:08;4.77;;;3.87;;
1026;SDS011;502;48.746;9.214;2023-08-01T05:31:34;4.43;;;3.87;;
1026;SDS011;502;48.746;9.214;2023-08-01T05:34:01;5.13;;;3.83;;
1026;SDS011;502;48.746;9.214;2023-08-01T05:36:33;6.00;;;3.57;;
1026;SDS011;502;48.746;9.214;2023-08-01T05:39:01;5.13;;;4.03;;
1026;SDS011;502;48.746;9.214;2023-08-01T05:41:27;4.77;;;3.77;;
1026;SDS011;502;48.746;9.214;2023-08-01T05:43:54;5.00;;;3.63;;
1026;SDS011;502;48.746;9.214;2023-08-01T05:46:20;6.03;;;3.90;;
1026;SDS011;502;48.746;9.214;2023-08-01T05:48:47;5.10;;;4.00;;
1026;SDS011;502;48.746;9.214;2023-08-01T05:51:13;7.50;;;4.47;;
1026;SDS011;502;48.746;9.214;2023-08-01T05:53:40;6.20;;;3.60;;
1026;SDS011;502;48.746;9.214;2023-08-01T05:56:08;4.37;;;3.67;;
1026;SDS011;502;48.746;9.214;2023-08-01T05:58:35;5.27;;;3.23;;
1026;SDS011;502;48.746;9.214;2023-08-01T06:01:01;5.17;;;4.20;;
1026;SDS011;502;48.746;9.214;2023-08-01T06:03:29;4.20;;;3.80;;
1026;SDS011;502;48.746;9.214;2023-08-01T06:05:57;4.70;;;3.57;;
1026;SDS011;502;48.746;9.214;2023-08-01T06:08:24;6.20;;;4.03;;
1026;SDS011;502;48.746;9.214;2023-08-01T06:10:51;4.57;;;3.70;;
1026;SDS011;502;48.746;9.214;2023-08-01T06:13:19;4.40;;;3.03;;
1026;SDS011;502;48.746;9.214;2023-08-01T06:15:46;6.37;;;3.67;;
1026;SDS011;502;48.746;9.214;2023-08-01T06:18:12;4.40;;;3.47;;
1026;SDS011;502;48.746;9.214;2023-08-01T06:20:39;5.57;;;4.50;;
1026;SDS011;502;48.746;9.214;2023-08-01T06:23:05;4.63;;;3.80;;
1026;SDS011;502;48.746;9.214;2023-08-01T06:25:34;5.73;;;3.90;;
1026;SDS011;502;48.746;9.214;2023-08-01T06:28:00;5.00;;;3.70;;
1026;SDS011;502;48.746;9.214;2023-08-01T06:30:28;4.40;;;3.37;;
1026;SDS011;502;48.746;9.214;2023-08-01T06:32:55;4.20;;;3.53;;
1026;SDS011;502;48.746;9.214;2023-08-01T06:35:21;3.90;;;3.50;;
1026;SDS011;502;48.746;9.214;2023-08-01T06:37:48;5.73;;;3.73;;
1026;SDS011;502;48.746;9.214;2023-08-01T06:40:14;4.37;;;3.40;;
1026;SDS011;502;48.746;9.214;2023-08-01T06:42:41;5.10;;;3.67;;
1026;SDS011;502;48.746;9.214;2023-08-01T06:45:08;4.90;;;3.63;;
1026;SDS011;502;48.746;9.214;2023-08-01T06:47:36;4.80;;;3.50;;
1026;SDS011;502;48.746;9.214;2023-08-01T06:50:03;4.77;;;3.80;;
1026;SDS011;502;48.746;9.214;2023-08-01T06:52:30;4.77;;;3.83;;
1026;SDS011;502;48.746;9.214;2023-08-01T06:54:57;6.07;;;4.67;;
1026;SDS011;502;48.746;9.214;2023-08-01T06:57:23;6.43;;;4.30;;
1026;SDS011;502;48.746;9.214;2023-08-01T06:59:50;4.93;;;4.17;;
1026;SDS011;502;48.746;9.214;2023-08-01T07:02:17;5.40;;;4.33;;
1026;SDS011;502;48.746;9.214;2023-08-01T07:04:45;5.60;;;4.07;;
1026;SDS011;502;48.746;9.214;2023-08-01T07:07:11;7.97;;;4.73;;
1026;SDS011;502;48.746;9.214;2023-08-01T07:09:38;8.60;;;4.03;;
1026;SDS011;502;48.746;9.214;2023-08-01T07:12:05;5.40;;;4.80;;
1026;SDS011;502;48.746;9.214;2023-08-01T07:14:32;5.47;;;4.10;;
1026;SDS011;502;48.746;9.214;2023-08-01T07:16:58;7.07;;;4.60;;
1026;SDS011;502;48.746;9.214;2023-08-01T07:19:25;6.83;;;4.53;;
1026;SDS011;502;48.746;9.214;2023-08-01T07:21:53;4.93;;;4.10;;
1026;SDS011;502;48.746;9.214;2023-08-01T07:24:20;6.23;;;4.40;;
1026;SDS011;502;48.746;9.214;2023-08-01T07:26:46;5.20;;;3.97;;
1026;SDS011;502;48.746;9.214;2023-08-01T07:29:13;5.97;;;4.60;;
1026;SDS011;502;48.746;9.214;2023-08-01T07:31:41;6.70;;;4.13;;
1026;SDS011;502;48.746;9.214;2023-08-01T07:34:07;5.63;;;4.00;;
1026;SDS011;502;48.746;9.214;2023-08-01T07:36:34;6.00;;;4.30;;
1026;SDS011;502;48.746;9.214;2023-08-01T07:39:02;7.93;;;4.20;;
1026;SDS011;502;48.746;9.214;2023-08-01T07:41:29;5.90;;;4.70;;
1026;SDS011;502;48.746;9.214;2023-08-01T07:44:00;7.00;;;4.90;;
1026;SDS011;502;48.746;9.214;2023-08-01T07:46:27;5.70;;;4.07;;
1026;SDS011;502;48.746;9.214;2023-08-01T07:48:54;4.80;;;3.93;;
1026;SDS011;502;48.746;9.214;2023-08-01T07:51:20;5.07;;;4.47;;
1026;SDS011;502;48.746;9.214;2023-08-01T07:53:47;4.20;;;3.40;;
1026;SDS011;502;48.746;9.214;2023-08-01T07:56:15;4.67;;;4.10;;
1026;SDS011;502;48.746;9.214;2023-08-01T07:58:41;5.23;;;3.90;;
1026;SDS011;502;48.746;9.214;2023-08-01T08:01:08;4.10;;;3.07;;
1026;SDS011;502;48.746;9.214;2023-08-01T08:03:34;3.20;;;2.47;;
1026;SDS011;502;48.746;9.214;2023-08-01T08:06:01;4.27;;;2.50;;
1026;SDS011;502;48.746;9.214;2023-08-01T08:08:29;3.90;;;2.83;;
1026;SDS011;502;48.746;9.214;2023-08-01T08:10:55;4.63;;;2.80;;
1026;SDS011;502;48.746;9.214;2023-08-01T08:13:23;3.20;;;2.30;;
1026;SDS011;502;48.746;9.214;2023-08-01T08:15:50;4.57;;;3.00;;
1026;SDS011;502;48.746;9.214;2023-08-01T08:18:17;3.70;;;2.50;;
1026;SDS011;502;48.746;9.214;2023-08-01T08:20:45;5.10;;;2.83;;
1026;SDS011;502;48.746;9.214;2023-08-01T08:23:11;5.23;;;2.87;;
1026;SDS011;502;48.746;9.214;2023-08-01T08:25:39;4.47;;;3.00;;
1026;SDS011;502;48.746;9.214;2023-08-01T08:28:05;3.27;;;2.60;;
1026;SDS011;502;48.746;9.214;2023-08-01T08:30:34;3.53;;;3.00;;
1026;SDS011;502;48.746;9.214;2023-08-01T08:33:01;3.90;;;2.87;;
1026;SDS011;502;48.746;9.214;2023-08-01T08:35:32;3.10;;;2.40;;
1026;SDS011;502;48.746;9.214;2023-08-01T08:37:59;4.20;;;2.90;;
1026;SDS011;502;48.746;9.214;2023-08-01T08:40:28;4.40;;;2.87;;
1026;SDS011;502;48.746;9.214;2023-08-01T08:42:55;2.87;;;2.33;;
1026;SDS011;502;48.746;9.214;2023-08-01T08:45:23;5.10;;;3.37;;
1026;SDS011;502;48.746;9.214;2023-08-01T08:47:53;3.97;;;3.23;;
1026;SDS011;502;48.746;9.214;2023-08-01T08:50:21;4.50;;;3.30;;
1026;SDS011;502;48.746;9.214;2023-08-01T08:52:48;5.53;;;3.73;;
1026;SDS011;502;48.746;9.214;2023-08-01T08:55:15;5.93;;;3.10;;
1026;SDS011;502;48.746;9.214;2023-08-01T08:57:42;4.17;;;2.97;;
1026;SDS011;502;48.746;9.214;2023-08-01T09:00:10;3.30;;;2.70;;
1026;SDS011;502;48.746;9.214;2023-08-01T09:02:38;3.33;;;2.67;;
1026;SDS011;502;48.746;9.214;2023-08-01T09:05:06;3.87;;;3.00;;
1026;SDS011;502;48.746;9.214;2023-08-01T09:07:33;6.07;;;3.53;;
1026;SDS011;502;48.746;9.214;2023-08-01T09:10:00;4.40;;;3.53;;
1026;SDS011;502;48.746;9.214;2023-08-01T09:12:26;4.53;;;3.03;;
1026;SDS011;502;48.746;9.214;2023-08-01T09:14:53;3.70;;;2.87;;
1026;SDS011;502;48.746;9.214;2023-08-01T09:17:22;3.47;;;2.20;;
1026;SDS011;502;48.746;9.214;2023-08-01T09:19:54;4.03;;;2.40;;
1026;SDS011;502;48.746;9.214;2023-08-01T09:22:23;3.33;;;2.37;;
1026;SDS011;502;48.746;9.214;2023-08-01T09:24:52;3.60;;;2.33;;
1026;SDS011;502;48.746;9.214;2023-08-01T09:27:20;3.00;;;2.03;;
1026;SDS011;502;48.746;9.214;2023-08-01T09:29:48;3.90;;;1.90;;
1026;SDS011;502;48.746;9.214;2023-08-01T09:32:15;2.80;;;2.20;;
1026;SDS011;502;48.746;9.214;2023-08-01T09:34:41;2.53;;;2.07;;
1026;SDS011;502;48.746;9.214;2023-08-01T09:37:08;3.00;;;2.17;;
1026;SDS011;502;48.746;9.214;2023-08-01T09:39:36;2.50;;;1.77;;
1026;SDS011;502;48.746;9.214;2023-08-01T09:42:03;3.03;;;1.80;;
1026;SDS011;502;48.746;9.214;2023-08-01T09:44:30;3.63;;;2.20;;
1026;SDS011;502;48.746;9.214;2023-08-01T09:46:57;3.00;;;2.20;;
1026;SDS011;502;48.746;9.214;2023-08-01T09:49:24;2.50;;;1.53;;
1026;SDS011;502;48.746;9.214;2023-08-01T09:51:51;2.30;;;1.70;;
1026;SDS011;502;48.746;9.214;2023-08-01T09:54:18;2.07;;;1.40;;
1026;SDS011;502;48.746;9.214;2023-08-01T09:56:47;2.37;;;1.70;;
1026;SDS011;502;48.746;9.214;2023-08-01T09:59:16;2.07;;;1.60;;
1026;SDS011;502;48.746;9.214;2023-08-01T10:01:45;2.73;;;1.60;;
1026;SDS011;502;48.746;9.214;2023-08-01T10:04:15;1.93;;;1.40;;
1026;SDS011;502;48.746;9.214;2023-08-01T10:06:43;2.37;;;1.40;;
1026;SDS011;502;48.746;9.214;2023-08-01T10:09:13;1.83;;;1.20;;
1026;SDS011;502;48.746;9.214;2023-08-01T10:11:40;2.10;;;1.00;;
1026;SDS011;502;48.746;9.214;2023-08-01T10:14:08;2.17;;;1.00;;
1026;SDS011;502;48.746;9.214;2023-08-01T10:16:35;1.90;;;1.20;;
1026;SDS011;502;48.746;9.214;2023-08-01T10:19:02;2.00;;;1.37;;
1026;SDS011;502;48.746;9.214;2023-08-01T10:21:29;1.40;;;0.80;;
1026;SDS011;502;48.746;9.214;2023-08-01T10:23:56;3.00;;;1.30;;
1026;SDS011;502;48.746;9.214;2023-08-01T10:26:24;2.50;;;1.10;;
1026;SDS011;502;48.746;9.214;2023-08-01T10:28:51;1.50;;;0.80;;
1026;SDS011;502;48.746;9.214;2023-08-01T10:31:19;1.87;;;0.93;;
1026;SDS011;502;48.746;9.214;2023-08-01T10:33:48;1.50;;;0.83;;
1026;SDS011;502;48.746;9.214;2023-08-01T10:36:15;2.10;;;1.07;;
1026;SDS011;502;48.746;9.214;2023-08-01T10:38:46;1.40;;;1.00;;
1026;SDS011;502;48.746;9.214;2023-08-01T10:41:19;1.17;;;0.80;;
1026;SDS011;502;48.746;9.214;2023-08-01T10:43:47;3.10;;;0.90;;
1026;SDS011;502;48.746;9.214;2023-08-01T10:46:13;1.57;;;0.70;;
1026;SDS011;502;48.746;9.214;2023-08-01T10:48:48;1.87;;;1.00;;
1026;SDS011;502;48.746;9.214;2023-08-01T10:51:16;1.40;;;0.83;;
1026;SDS011;502;48.746;9.214;2023-08-01T10:53:42;2.83;;;1.00;;
1026;SDS011;502;48.746;9.214;2023-08-01T10:56:15;1.33;;;0.70;;
1026;SDS011;502;48.746;9.214;2023-08-01T10:58:42;2.00;;;0.83;;
1026;SDS011;502;48.746;9.214;2023-08-01T11:01:09;1.20;;;0.70;;
1026;SDS011;502;48.746;9.214;2023-08-01T11:03:35;1.10;;;0.63;;
1026;SDS011;502;48.746;9.214;2023-08-01T11:06:03;1.30;;;0.97;;
1026;SDS011;502;48.746;9.214;2023-08-01T11:08:34;1.77;;;0.90;;
1026;SDS011;502;48.746;9.214;2023-08-01T11:11:01;1.93;;;0.80;;
1026;SDS011;502;48.746;9.214;2023-08-01T11:13:30;2.07;;;1.00;;
1026;SDS011;502;48.746;9.214;2023-08-01T11:16:00;1.50;;;1.00;;
1026;SDS011;502;48.746;9.214;2023-08-01T11:18:27;1.50;;;0.70;;
1026;SDS011;502;48.746;9.214;2023-08-01T11:20:54;1.73;;;0.80;;
1026;SDS011;502;48.746;9.214;2023-08-01T11:23:28;1.33;;;0.70;;
1026;SDS011;502;48.746;9.214;2023-08-01T11:25:55;1.77;;;1.00;;
1026;SDS011;502;48.746;9.214;2023-08-01T11:28:22;2.03;;;1.00;;
1026;SDS011;502;48.746;9.214;2023-08-01T11:30:49;1.53;;;0.90;;
1026;SDS011;502;48.746;9.214;2023-08-01T11:33:17;1.77;;;1.10;;
1026;SDS011;502;48.746;9.214;2023-08-01T11:35:46;1.50;;;1.00;;
1026;SDS011;502;48.746;9.214;2023-08-01T11:38:15;2.13;;;1.20;;
1026;SDS011;502;48.746;9.214;2023-08-01T11:40:43;1.97;;;0.90;;
1026;SDS011;502;48.746;9.214;2023-08-01T11:43:10;2.47;;;1.00;;
1026;SDS011;502;48.746;9.214;2023-08-01T11:45:37;1.90;;;1.20;;
1026;SDS011;502;48.746;9.214;2023-08-01T11:48:03;2.23;;;1.03;;
1026;SDS011;502;48.746;9.214;2023-08-01T11:50:30;1.63;;;1.10;;
1026;SDS011;502;48.746;9.214;2023-08-01T11:52:57;1.93;;;1.00;;
1026;SDS011;502;48.746;9.214;2023-08-01T11:55:25;1.53;;;0.97;;
1026;SDS011;502;48.746;9.214;2023-08-01T11:57:55;2.03;;;1.17;;
1026;SDS011;502;48.746;9.214;2023-08-01T12:00:22;2.03;;;1.17;;
1026;SDS011;502;48.746;9.214;2023-08-01T12:02:50;1.60;;;1.10;;
1026;SDS011;502;48.746;9.214;2023-08-01T12:05:20;1.70;;;0.87;;
1026;SDS011;502;48.746;9.214;2023-08-01T12:07:48;1.50;;;1.00;;
1026;SDS011;502;48.746;9.214;2023-08-01T12:10:23;2.43;;;1.10;;
1026;SDS011;502;48.746;9.214;2023-08-01T12:12:50;1.60;;;1.23;;
1026;SDS011;502;48.746;9.214;2023-08-01T12:15:17;2.90;;;1.50;;
1026;SDS011;502;48.746;9.214;2023-08-01T12:17:44;1.23;;;0.70;;
1026;SDS011;502;48.746;9.214;2023-08-01T12:20:11;1.43;;;0.90;;
1026;SDS011;502;48.746;9.214;2023-08-01T12:22:38;2.67;;;1.17;;
1026;SDS011;502;48.746;9.214;2023-08-01T12:25:05;2.00;;;1.03;;
1026;SDS011;502;48.746;9.214;2023-08-01T12:27:33;1.70;;;1.10;;
1026;SDS011;502;48.746;9.214;2023-08-01T12:30:00;1.40;;;1.00;;
1026;SDS011;502;48.746;9.214;2023-08-01T12:32:28;1.67;;;1.17;;
1026;SDS011;502;48.746;9.214;2023-08-01T12:34:54;1.40;;;1.03;;
1026;SDS011;502;48.746;9.214;2023-08-01T12:37:21;1.50;;;1.30;;
1026;SDS011;502;48.746;9.214;2023-08-01T12:39:47;2.47;;;1.20;;
1026;SDS011;502;48.746;9.214;2023-08-01T12:42:14;2.10;;;1.17;;
1026;SDS011;502;48.746;9.214;2023-08-01T12:44:40;3.80;;;1.10;;
1026;SDS011;502;48.746;9.214;2023-08-01T12:47:07;2.03;;;1.30;;
1026;SDS011;502;48.746;9.214;2023-08-01T12:49:37;2.20;;;1.30;;
1026;SDS011;502;48.746;9.214;2023-08-01T12:52:04;1.93;;;1.20;;
1026;SDS011;502;48.746;9.214;2023-08-01T12:54:31;2.53;;;1.33;;
1026;SDS011;502;48.746;9.214;2023-08-01T12:56:58;1.70;;;1.10;;
1026;SDS011;502;48.746;9.214;2023-08-01T12:59:24;1.40;;;1.00;;
1026;SDS011;502;48.746;9.214;2023-08-01T13:01:51;2.03;;;1.20;;
1026;SDS011;502;48.746;9.214;2023-08-01T13:04:17;1.80;;;1.30;;
1026;SDS011;502;48.746;9.214;2023-08-01T13:06:45;1.83;;;1.20;;
1026;SDS011;502;48.746;9.214;2023-08-01T13:09:12;1.53;;;1.13;;
1026;SDS011;502;48.746;9.214;2023-08-01T13:11:39;2.27;;;1.47;;
1026;SDS011;502;48.746;9.214;2023-08-01T13:14:08;2.03;;;1.37;;
1026;SDS011;502;48.746;9.214;2023-08-01T13:16:35;2.33;;;1.50;;
1026;SDS011;502;48.746;9.214;2023-08-01T13:19:01;2.10;;;1.30;;
1026;SDS011;502;48.746;9.214;2023-08-01T13:21:28;2.80;;;1.40;;
1026;SDS011;502;48.746;9.214;2023-08-01T13:23:56;2.53;;;1.33;;
1026;SDS011;502;48.746;9.214;2023-08-01T13:26:22;1.80;;;1.03;;
1026;SDS011;502;48.746;9.214;2023-08-01T13:28:49;2.20;;;1.30;;
1026;SDS011;502;48.746;9.214;2023-08-01T13:31:15;4.43;;;1.30;;
1026;SDS011;502;48.746;9.214;2023-08-01T13:33:42;6.20;;;1.40;;
1026;SDS011;502;48.746;9.214;2023-08-01T13:36:08;1.33;;;0.90;;
1026;SDS011;502;48.746;9.214;2023-08-01T13:38:35;2.73;;;1.30;;
1026;SDS011;502;48.746;9.214;2023-08-01T13:41:03;1.80;;;1.47;;
1026;SDS011;502;48.746;9.214;2023-08-01T13:43:29;2.23;;;1.23;;
1026;SDS011;502;48.746;9.214;2023-08-01T13:45:56;3.23;;;1.70;;
1026;SDS011;502;48.746;9.214;2023-08-01T13:48:23;1.70;;;1.30;;
1026;SDS011;502;48.746;9.214;2023-08-01T13:50:49;2.60;;;1.27;;
1026;SDS011;502;48.746;9.214;2023-08-01T13:53:16;2.67;;;1.67;;
1026;SDS011;502;48.746;9.214;2023-08-01T13:55:42;2.10;;;1.60;;
1026;SDS011;502;48.746;9.214;2023-08-01T13:58:10;3.17;;;1.70;;
1026;SDS011;502;48.746;9.214;2023-08-01T14:00:37;2.70;;;1.70;;
1026;SDS011;502;48.746;9.214;2023-08-01T14:03:03;3.47;;;1.37;;
1026;SDS011;502;48.746;9.214;2023-08-01T14:05:30;2.07;;;1.10;;
1026;SDS011;502;48.746;9.214;2023-08-01T14:07:56;2.30;;;1.50;;
1026;SDS011;502;48.746;9.214;2023-08-01T14:10:25;2.13;;;1.47;;
1026;SDS011;502;48.746;9.214;2023-08-01T14:12:51;1.50;;;1.00;;
1026;SDS011;502;48.746;9.214;2023-08-01T14:15:19;2.43;;;1.73;;
1026;SDS011;502;48.746;9.214;2023-08-01T14:17:46;2.10;;;1.60;;
1026;SDS011;502;48.746;9.214;2023-08-01T14:20:12;2.23;;;1.47;;
1026;SDS011;502;48.746;9.214;2023-08-01T14:22:40;1.70;;;1.20;;
1026;SDS011;502;48.746;9.214;2023-08-01T14:25:08;2.87;;;1.60;;
1026;SDS011;502;48.746;9.214;2023-08-01T14:27:35;2.53;;;1.70;;
1026;SDS011;502;48.746;9.214;2023-08-01T14:30:01;1.70;;;1.20;;
1026;SDS011;502;48.746;9.214;2023-08-01T14:32:36;2.33;;;1.30;;
1026;SDS011;502;48.746;9.214;2023-08-01T14:35:06;2.13;;;1.60;;
1026;SDS011;502;48.746;9.214;2023-08-01T14:37:33;4.80;;;1.37;;
1026;SDS011;502;48.746;9.214;2023-08-01T14:39:59;3.43;;;1.70;;
1026;SDS011;502;48.746;9.214;2023-08-01T14:42:26;1.80;;;1.30;;
1026;SDS011;502;48.746;9.214;2023-08-01T14:44:52;1.50;;;1.00;;
1026;SDS011;502;48.746;9.214;2023-08-01T14:47:19;2.10;;;1.40;;
1026;SDS011;502;48.746;9.214;2023-08-01T14:49:47;5.60;;;1.83;;
1026;SDS011;502;48.746;9.214;2023-08-01T14:52:14;1.90;;;1.20;;
1026;SDS011;502;48.746;9.214;2023-08-01T14:54:41;1.83;;;1.23;;
1026;SDS011;502;48.746;9.214;2023-08-01T14:57:08;2.00;;;1.50;;
1026;SDS011;502;48.746;9.214;2023-08-01T14:59:34;2.50;;;1.50;;
1026;SDS011;502;48.746;9.214;2023-08-01T15:02:01;2.20;;;1.50;;
1026;SDS011;502;48.746;9.214;2023-08-01T15:04:27;2.93;;;1.83;;
1026;SDS011;502;48.746;9.214;2023-08-01T15:07:02;2.87;;;1.50;;
1026;SDS011;502;48.746;9.214;2023-08-01T15:09:29;2.10;;;1.20;;
1026;SDS011;502;48.746;9.214;2023-08-01T15:11:55;3.60;;;1.50;;
1026;SDS011;502;48.746;9.214;2023-08-01T15:14:22;2.70;;;1.63;;
1026;SDS011;502;48.746;9.214;2023-08-01T15:16:49;2.00;;;1.70;;
1026;SDS011;502;48.746;9.214;2023-08-01T15:19:15;2.10;;;1.30;;
1026;SDS011;502;48.746;9.214;2023-08-01T15:21:42;1.93;;;1.47;;
1026;SDS011;502;48.746;9.214;2023-08-01T15:24:10;1.83;;;1.40;;
1026;SDS011;502;48.746;9.214;2023-08-01T15:26:37;2.10;;;1.50;;
1026;SDS011;502;48.746;9.214;2023-08-01T15:29:03;2.17;;;1.40;;